createdAt,value
2024-02-08T00:01:48.299Z,20.60
2024-02-08T00:04:37.105Z,25.70
2024-02-08T00:07:24.097Z,131.50
2024-02-08T00:10:11.028Z,19.90
2024-02-08T00:12:58.092Z,30.90
2024-02-08T00:15:44.950Z,21.30
2024-02-08T00:18:32.009Z,16.50
2024-02-08T00:21:19.320Z,18.50
2024-02-08T00:24:06.469Z,23.40
2024-02-08T00:26:53.200Z,19.00
2024-02-08T00:29:44.892Z,20.00
2024-02-08T00:32:31.816Z,14.20
2024-02-08T00:35:19.829Z,24.90
2024-02-08T00:38:06.846Z,16.90
2024-02-08T00:40:53.861Z,17.20
2024-02-08T00:43:40.820Z,14.50
2024-02-08T00:46:28.037Z,16.80
2024-02-08T00:49:15.129Z,12.20
2024-02-08T00:52:02.051Z,10.80
2024-02-08T00:54:52.317Z,17.00
2024-02-08T00:57:39.905Z,20.60
2024-02-08T01:00:29.619Z,22.10
2024-02-08T01:03:16.644Z,27.90
2024-02-08T01:06:03.766Z,20.50
2024-02-08T01:08:52.380Z,19.10
2024-02-08T01:11:39.275Z,15.10
2024-02-08T01:14:26.116Z,13.70
2024-02-08T01:17:15.665Z,16.40
2024-02-08T01:20:08.080Z,14.50
2024-02-08T01:22:55.593Z,13.60
2024-02-08T01:25:42.886Z,12.70
2024-02-08T01:28:31.282Z,13.60
2024-02-08T01:31:18.195Z,15.90
2024-02-08T01:34:08.703Z,13.30
2024-02-08T01:36:55.695Z,13.20
2024-02-08T01:39:43.093Z,12.30
2024-02-08T01:42:30.259Z,11.00
2024-02-08T01:45:31.651Z,11.10
2024-02-08T01:48:18.749Z,14.90
2024-02-08T01:51:06.282Z,14.00
2024-02-08T01:53:53.452Z,15.20
2024-02-08T01:56:43.716Z,13.30
2024-02-08T01:59:33.054Z,16.80
2024-02-08T02:02:24.294Z,18.70
2024-02-08T02:05:19.498Z,15.50
2024-02-08T02:08:07.518Z,19.70
2024-02-08T02:10:54.302Z,19.80
2024-02-08T02:13:42.170Z,19.50
2024-02-08T02:16:29.247Z,20.50
2024-02-08T02:19:15.909Z,21.90
2024-02-08T02:22:02.707Z,20.00
2024-02-08T02:24:49.899Z,18.70
2024-02-08T02:27:41.368Z,18.40
2024-02-08T02:30:31.243Z,19.60
2024-02-08T02:33:20.663Z,18.60
2024-02-08T02:36:08.599Z,20.20
2024-02-08T02:38:55.301Z,20.50
2024-02-08T02:41:42.272Z,19.20
2024-02-08T02:44:29.225Z,21.50
2024-02-08T02:47:21.724Z,22.40
2024-02-08T02:50:09.141Z,22.00
2024-02-08T02:52:56.192Z,24.00
2024-02-08T02:55:43.301Z,21.20
2024-02-08T02:58:32.858Z,21.20
2024-02-08T03:01:20.719Z,19.50
2024-02-08T03:04:07.749Z,18.10
2024-02-08T03:06:54.505Z,19.30
2024-02-08T03:09:41.309Z,20.40
2024-02-08T03:12:28.269Z,19.10
2024-02-08T03:15:15.236Z,19.60
2024-02-08T03:18:02.181Z,15.60
2024-02-08T03:20:52.063Z,19.60
2024-02-08T03:23:39.762Z,18.70
2024-02-08T03:26:26.741Z,18.10
2024-02-08T03:29:14.785Z,21.60
2024-02-08T03:32:01.692Z,20.10
2024-02-08T03:34:48.487Z,18.60
2024-02-08T03:37:35.477Z,18.30
2024-02-08T03:40:27.642Z,19.90
2024-02-08T03:43:17.356Z,18.50
2024-02-08T03:46:06.342Z,16.70
2024-02-08T03:48:55.720Z,16.70
2024-02-08T03:51:43.334Z,16.80
2024-02-08T03:54:34.446Z,18.00
2024-02-08T03:57:25.141Z,15.70
2024-02-08T04:00:14.881Z,18.70
2024-02-08T04:03:07.701Z,20.10
2024-02-08T04:05:55.008Z,23.20
2024-02-08T04:09:04.456Z,18.90
2024-02-08T04:12:09.810Z,17.60
2024-02-08T04:15:15.176Z,18.40
2024-02-08T04:18:21.018Z,22.90
2024-02-08T04:21:26.975Z,16.20
2024-02-08T04:24:33.011Z,17.90
2024-02-08T04:27:38.710Z,17.70
2024-02-08T04:30:44.421Z,24.40
2024-02-08T04:33:50.079Z,21.40
2024-02-08T04:36:55.362Z,21.30
2024-02-08T04:40:01.435Z,24.50
2024-02-08T04:43:11.217Z,18.70
2024-02-08T04:46:16.970Z,18.20
2024-02-08T04:49:22.407Z,18.90
2024-02-08T04:52:27.883Z,19.80
2024-02-08T04:55:14.822Z,18.10
2024-02-08T04:58:27.811Z,20.30
2024-02-08T05:01:12.581Z,22.50
2024-02-08T05:04:02.476Z,25.40
2024-02-08T05:06:49.866Z,19.80
2024-02-08T05:09:37.086Z,19.30
2024-02-08T05:12:24.129Z,19.30
2024-02-08T05:15:14.489Z,19.80
2024-02-08T05:18:01.653Z,22.40
2024-02-08T05:20:49.489Z,19.90
2024-02-08T05:23:40.241Z,19.50
2024-02-08T05:26:27.665Z,19.20
2024-02-08T05:29:20.958Z,19.30
2024-02-08T05:32:11.614Z,19.20
2024-02-08T05:34:59.549Z,21.70
2024-02-08T05:37:48.291Z,21.10
2024-02-08T05:40:42.399Z,16.90
2024-02-08T05:43:29.643Z,16.30
2024-02-08T05:46:28.658Z,15.70
2024-02-08T05:49:16.509Z,18.00
2024-02-08T05:52:08.316Z,15.20
2024-02-08T05:54:56.525Z,15.10
2024-02-08T05:57:45.877Z,15.10
2024-02-08T06:00:47.150Z,13.20
2024-02-08T06:03:39.411Z,13.00
2024-02-08T06:06:36.026Z,14.10
2024-02-08T06:09:41.147Z,13.70
2024-02-08T06:12:53.743Z,16.30
2024-02-08T06:15:52.300Z,14.50
2024-02-08T06:18:42.017Z,14.30
2024-02-08T06:21:40.391Z,15.90
2024-02-08T06:24:27.353Z,14.70
2024-02-08T06:27:17.646Z,13.40
2024-02-08T06:30:10.068Z,17.60
2024-02-08T06:33:09.930Z,20.80
2024-02-08T06:36:00.370Z,17.90
2024-02-08T06:38:54.461Z,22.80
2024-02-08T06:42:00.004Z,16.20
2024-02-08T06:44:58.452Z,20.10
2024-02-08T06:48:00.431Z,20.20
2024-02-08T06:51:06.162Z,18.90
2024-02-08T06:54:12.196Z,19.40
2024-02-08T06:57:17.488Z,25.50
2024-02-08T07:00:23.331Z,36.90
2024-02-08T07:03:29.144Z,22.70
2024-02-08T07:06:35.115Z,17.50
2024-02-08T07:09:40.782Z,17.00
2024-02-08T07:12:46.510Z,17.60
2024-02-08T07:15:52.031Z,22.70
2024-02-08T07:19:06.674Z,27.10
2024-02-08T07:22:13.920Z,26.30
2024-02-08T07:25:19.584Z,25.80
2024-02-08T07:28:25.517Z,26.10
2024-02-08T07:31:30.888Z,23.40
2024-02-08T07:34:36.678Z,22.60
2024-02-08T07:37:29.155Z,20.10
2024-02-08T07:40:25.778Z,27.80
2024-02-08T07:43:16.635Z,24.70
2024-02-08T07:46:07.002Z,23.70
2024-02-08T07:48:59.991Z,30.90
2024-02-08T07:51:51.967Z,26.50
2024-02-08T07:54:40.756Z,26.90
2024-02-08T07:57:33.026Z,20.00
2024-02-08T08:00:35.747Z,24.90
2024-02-08T08:03:25.245Z,22.00
2024-02-08T08:06:16.374Z,24.90
2024-02-08T08:09:20.864Z,27.90
2024-02-08T08:12:08.997Z,25.20
2024-02-08T08:15:18.242Z,21.70
2024-02-08T08:18:17.998Z,17.20
2024-02-08T08:21:05.660Z,31.10
2024-02-08T08:24:01.860Z,25.50
2024-02-08T08:26:52.978Z,29.00
2024-02-08T08:29:45.808Z,27.00
2024-02-08T08:32:33.514Z,19.00
2024-02-08T08:35:46.961Z,19.40
2024-02-08T08:38:38.655Z,17.20
2024-02-08T08:41:25.838Z,16.70
2024-02-08T08:44:12.923Z,19.70
2024-02-08T08:47:02.515Z,17.40
2024-02-08T08:49:52.607Z,15.80
2024-02-08T08:52:49.014Z,14.70
2024-02-08T08:55:41.320Z,15.70
2024-02-08T08:58:29.436Z,15.50
2024-02-08T09:01:20.456Z,18.10
2024-02-08T09:04:11.903Z,20.90
2024-02-08T09:07:10.241Z,16.30
2024-02-08T09:10:03.048Z,14.50
2024-02-08T09:13:01.617Z,17.30
2024-02-08T09:16:18.013Z,16.30
2024-02-08T09:19:13.721Z,16.00
2024-02-08T09:22:03.244Z,14.00
2024-02-08T09:24:52.122Z,18.50
2024-02-08T09:27:40.003Z,18.30
2024-02-08T09:30:53.929Z,20.00
2024-02-08T09:34:02.592Z,17.40
2024-02-08T09:36:50.301Z,25.20
2024-02-08T09:40:00.644Z,21.50
2024-02-08T09:43:11.073Z,18.20
2024-02-08T09:46:07.184Z,20.60
2024-02-08T09:48:54.368Z,24.40
2024-02-08T09:52:07.939Z,22.10
2024-02-08T09:54:57.589Z,19.00
2024-02-08T09:57:47.870Z,15.40
2024-02-08T10:00:55.131Z,12.40
2024-02-08T10:03:46.363Z,13.40
2024-02-08T10:06:43.312Z,14.40
2024-02-08T10:09:42.661Z,22.00
2024-02-08T10:12:42.364Z,12.60
2024-02-08T10:15:57.847Z,12.50
2024-02-08T10:18:58.588Z,13.20
2024-02-08T10:21:45.992Z,14.50
2024-02-08T10:24:51.150Z,11.30
2024-02-08T10:27:37.830Z,12.70
2024-02-08T10:30:26.889Z,10.90
2024-02-08T10:33:16.849Z,9.90
2024-02-08T10:36:23.152Z,11.30
2024-02-08T10:39:28.113Z,11.10
2024-02-08T10:42:15.566Z,11.20
2024-02-08T10:45:07.092Z,11.00
2024-02-08T10:47:56.513Z,12.80
2024-02-08T10:50:45.966Z,10.80
2024-02-08T10:53:45.520Z,12.40
2024-02-08T10:56:42.704Z,15.70
2024-02-08T10:59:49.796Z,12.30
2024-02-08T11:02:42.426Z,14.70
2024-02-08T11:05:30.586Z,11.70
2024-02-08T11:08:26.394Z,14.70
2024-02-08T11:11:22.521Z,10.30
2024-02-08T11:14:10.490Z,15.20
2024-02-08T11:17:01.892Z,10.20
2024-02-08T11:19:59.603Z,9.10
2024-02-08T11:22:58.797Z,9.20
2024-02-08T11:25:46.603Z,8.40
2024-02-08T11:28:46.038Z,12.40
2024-02-08T11:31:43.337Z,8.10
2024-02-08T11:34:46.656Z,8.30
2024-02-08T11:37:39.933Z,10.30
2024-02-08T11:40:30.008Z,11.30
2024-02-08T11:43:21.303Z,9.00
2024-02-08T11:46:20.386Z,10.50
2024-02-08T11:49:16.751Z,13.90
2024-02-08T11:52:08.742Z,11.90
2024-02-08T11:55:15.292Z,16.20
2024-02-08T11:58:07.280Z,12.20
2024-02-08T12:00:54.636Z,11.90
2024-02-08T12:03:43.262Z,14.20
2024-02-08T12:06:35.269Z,12.90
2024-02-08T12:09:31.714Z,11.40
2024-02-08T12:12:20.734Z,13.20
2024-02-08T12:15:10.052Z,16.80
2024-02-08T12:18:10.025Z,17.90
2024-02-08T12:20:58.761Z,14.50
2024-02-08T12:23:54.521Z,9.30
2024-02-08T12:26:41.456Z,13.30
2024-02-08T12:29:31.384Z,23.00
2024-02-08T12:32:18.488Z,14.80
2024-02-08T12:35:15.114Z,12.70
2024-02-08T12:38:04.547Z,13.60
2024-02-08T12:40:51.538Z,34.50
2024-02-08T12:43:39.106Z,19.00
2024-02-08T12:46:27.583Z,17.00
2024-02-08T12:49:16.911Z,23.10
2024-02-08T12:52:05.275Z,25.40
2024-02-08T12:54:55.933Z,18.50
2024-02-08T12:57:43.185Z,19.50
2024-02-08T13:00:35.759Z,15.60
2024-02-08T13:03:25.811Z,16.20
2024-02-08T13:06:13.754Z,20.00
2024-02-08T13:09:27.704Z,23.70
2024-02-08T13:12:16.682Z,21.10
2024-02-08T13:15:07.214Z,22.20
2024-02-08T13:17:58.064Z,17.40
2024-02-08T13:20:45.758Z,18.60
2024-02-08T13:23:35.750Z,20.60
2024-02-08T13:26:30.211Z,19.60
2024-02-08T13:29:27.698Z,24.80
2024-02-08T13:32:14.477Z,26.30
2024-02-08T13:35:04.504Z,29.60
2024-02-08T13:37:54.416Z,26.30
2024-02-08T13:40:46.333Z,23.20
2024-02-08T13:43:34.506Z,20.40
2024-02-08T13:46:23.050Z,23.70
2024-02-08T13:49:09.893Z,28.60
2024-02-08T13:51:57.678Z,34.60
2024-02-08T13:54:47.104Z,35.30
2024-02-08T13:57:41.085Z,35.20
2024-02-08T14:03:20.457Z,32.30
2024-02-08T14:06:11.406Z,26.20
2024-02-08T14:09:18.539Z,24.90
2024-02-08T14:12:09.851Z,24.90
2024-02-08T14:14:59.028Z,28.30
2024-02-08T14:17:55.714Z,29.50
2024-02-08T14:20:44.596Z,26.20
2024-02-08T14:23:32.258Z,33.50
2024-02-08T14:26:19.130Z,44.20
2024-02-08T14:29:07.210Z,46.00
2024-02-08T14:31:54.463Z,34.30
2024-02-08T14:34:42.314Z,37.70
2024-02-08T14:37:30.048Z,33.40
2024-02-08T14:40:16.836Z,31.10
2024-02-08T14:43:07.583Z,30.60
2024-02-08T14:45:55.726Z,36.50
2024-02-08T14:48:42.585Z,40.60
2024-02-08T14:51:37.698Z,39.70
2024-02-08T14:54:27.312Z,31.50
2024-02-08T14:57:20.993Z,24.40
2024-02-08T15:00:27.817Z,28.20
2024-02-08T15:03:23.739Z,30.20
2024-02-08T15:06:36.921Z,30.80
2024-02-08T15:09:35.262Z,35.40
2024-02-08T15:12:27.954Z,36.90
2024-02-08T15:15:20.497Z,48.80
2024-02-08T15:18:14.481Z,40.70
2024-02-08T15:21:05.860Z,43.20
2024-02-08T15:24:12.318Z,43.60
2024-02-08T15:27:09.539Z,45.90
2024-02-08T15:30:12.162Z,46.20
2024-02-08T15:32:59.310Z,47.30
2024-02-08T15:35:53.721Z,42.60
2024-02-08T15:39:02.242Z,46.90
2024-02-08T15:41:56.891Z,48.90
2024-02-08T15:45:09.629Z,67.40
2024-02-08T15:47:56.952Z,56.60
2024-02-08T15:50:44.854Z,56.80
2024-02-08T15:53:37.943Z,47.80
2024-02-08T15:56:27.071Z,50.70
2024-02-08T15:59:14.154Z,55.90
2024-02-08T16:02:06.409Z,64.50
2024-02-08T16:04:54.616Z,59.10
2024-02-08T16:07:44.106Z,57.10
2024-02-08T16:10:33.404Z,46.00
2024-02-08T16:13:24.746Z,37.10
2024-02-08T16:16:11.408Z,44.70
2024-02-08T16:19:03.441Z,60.60
2024-02-08T16:21:50.989Z,47.50
2024-02-08T16:24:43.155Z,40.90
2024-02-08T16:27:30.862Z,33.40
2024-02-08T16:30:29.993Z,48.20
2024-02-08T16:33:21.865Z,42.00
2024-02-08T16:36:33.265Z,49.90
2024-02-08T16:39:20.773Z,35.40
2024-02-08T16:42:19.531Z,29.30
2024-02-08T16:45:19.196Z,27.70
2024-02-08T16:48:15.916Z,31.80
2024-02-08T16:51:25.138Z,50.20
2024-02-08T16:54:21.285Z,34.90
2024-02-08T16:57:09.122Z,39.80
2024-02-08T16:59:55.865Z,48.30
2024-02-08T17:02:51.135Z,55.10
2024-02-08T17:05:51.035Z,50.80
2024-02-08T17:08:51.739Z,51.70
2024-02-08T17:11:41.805Z,51.90
2024-02-08T17:14:37.851Z,57.60
2024-02-08T17:17:36.630Z,45.00
2024-02-08T17:20:44.272Z,56.40
2024-02-08T17:23:43.106Z,50.10
2024-02-08T17:26:52.467Z,41.50
2024-02-08T17:29:44.943Z,35.10
2024-02-08T17:32:44.451Z,39.60
2024-02-08T17:35:35.949Z,40.70
2024-02-08T17:38:30.315Z,34.00
2024-02-08T17:41:20.162Z,39.50
2024-02-08T17:44:07.402Z,40.30
2024-02-08T17:46:54.434Z,41.90
2024-02-08T17:49:41.589Z,34.30
2024-02-08T17:52:28.785Z,43.40
2024-02-08T17:55:23.146Z,46.40
2024-02-08T17:58:14.279Z,43.30
2024-02-08T18:01:06.585Z,45.90
2024-02-08T18:03:54.071Z,37.60
2024-02-08T18:06:41.192Z,39.70
2024-02-08T18:09:57.155Z,38.40
2024-02-08T18:12:44.907Z,40.00
2024-02-08T18:15:36.447Z,37.00
2024-02-08T18:18:24.442Z,32.50
2024-02-08T18:21:17.336Z,32.60
2024-02-08T18:24:07.574Z,33.80
2024-02-08T18:26:56.682Z,31.50
2024-02-08T18:29:46.290Z,33.70
2024-02-08T18:32:36.279Z,39.00
2024-02-08T18:35:25.038Z,34.00
2024-02-08T18:38:14.021Z,36.10
2024-02-08T18:41:07.676Z,33.30
2024-02-08T18:43:56.364Z,33.00
2024-02-08T18:46:43.400Z,35.70
2024-02-08T18:49:32.231Z,35.50
2024-02-08T18:52:19.797Z,30.30
2024-02-08T18:55:11.096Z,29.90
2024-02-08T18:58:02.565Z,33.60
2024-02-08T19:00:56.464Z,25.50
2024-02-08T19:03:47.742Z,27.80
2024-02-08T19:06:40.779Z,31.30
2024-02-08T19:09:32.404Z,32.30
2024-02-08T19:12:19.500Z,34.50
2024-02-08T19:15:07.947Z,34.70
2024-02-08T19:18:03.407Z,27.50
2024-02-08T19:20:57.348Z,30.70
2024-02-08T19:23:44.737Z,31.50
2024-02-08T19:26:36.979Z,30.10
2024-02-08T19:29:26.840Z,33.30
2024-02-08T19:32:20.756Z,31.30
2024-02-08T19:38:05.248Z,38.90
2024-02-08T19:40:54.954Z,40.20
2024-02-08T19:43:43.125Z,30.20
2024-02-08T19:46:30.247Z,31.90
2024-02-08T19:49:17.271Z,36.40
2024-02-08T19:52:08.693Z,40.60
2024-02-08T19:54:58.439Z,39.20
2024-02-08T19:57:49.159Z,37.20
2024-02-08T20:00:39.184Z,40.70
2024-02-08T20:03:28.319Z,44.20
2024-02-08T20:06:22.456Z,36.30
2024-02-08T20:09:13.511Z,51.50
2024-02-08T20:12:00.716Z,30.30
2024-02-08T20:14:49.036Z,34.30
2024-02-08T20:17:37.892Z,37.70
2024-02-08T20:20:25.084Z,29.80
2024-02-08T20:23:14.966Z,33.90
2024-02-08T20:26:02.800Z,36.50
2024-02-08T20:28:49.573Z,39.70
2024-02-08T20:31:36.840Z,33.60
2024-02-08T20:34:24.057Z,32.30
2024-02-08T20:37:15.301Z,46.00
2024-02-08T20:40:04.099Z,46.50
2024-02-08T20:42:55.118Z,45.40
2024-02-08T20:45:50.836Z,40.20
2024-02-08T20:48:41.273Z,45.30
2024-02-08T20:51:29.944Z,42.70
2024-02-08T20:54:17.093Z,46.10
2024-02-08T20:57:11.305Z,44.20
2024-02-08T21:02:48.341Z,38.00
2024-02-08T21:05:38.310Z,37.30
2024-02-08T21:08:26.778Z,29.70
2024-02-08T21:11:13.863Z,40.10
2024-02-08T21:14:00.848Z,27.50
2024-02-08T21:16:50.646Z,26.30
2024-02-08T21:19:43.369Z,30.30
2024-02-08T21:22:30.219Z,35.20
2024-02-08T21:25:20.297Z,40.40
2024-02-08T21:28:15.097Z,46.50
2024-02-08T21:31:03.034Z,29.20
2024-02-08T21:33:53.411Z,34.60
2024-02-08T21:36:43.867Z,35.30
2024-02-08T21:39:33.205Z,37.00
2024-02-08T21:42:21.249Z,29.80
2024-02-08T21:45:13.523Z,27.20
2024-02-08T21:48:00.512Z,20.80
2024-02-08T21:50:53.291Z,25.10
2024-02-08T21:53:40.430Z,23.50
2024-02-08T21:56:30.483Z,21.40
2024-02-08T21:59:19.596Z,23.00
2024-02-08T22:02:09.567Z,26.80
2024-02-08T22:04:56.542Z,24.00
2024-02-08T22:07:48.953Z,23.50
2024-02-08T22:10:35.983Z,23.30
2024-02-08T22:13:24.531Z,20.10
2024-02-08T22:16:20.429Z,24.90
2024-02-08T22:19:07.378Z,26.40
2024-02-08T22:21:54.388Z,26.30
2024-02-08T22:24:43.307Z,25.20
2024-02-08T22:27:30.162Z,25.30
2024-02-08T22:30:17.405Z,23.50
2024-02-08T22:33:07.789Z,31.20
2024-02-08T22:35:54.744Z,18.70
2024-02-08T22:38:41.969Z,23.30
2024-02-08T22:41:29.793Z,22.80
2024-02-08T22:44:17.176Z,23.30
2024-02-08T22:47:07.495Z,28.40
2024-02-08T22:49:55.023Z,21.80
2024-02-08T22:52:45.576Z,16.40
2024-02-08T22:55:32.876Z,22.30
2024-02-08T22:58:21.918Z,46.00
2024-02-08T23:01:35.698Z,23.20
2024-02-08T23:04:24.428Z,79.10
2024-02-08T23:07:11.903Z,25.40
2024-02-08T23:09:58.795Z,24.80
2024-02-08T23:12:51.492Z,22.00
2024-02-08T23:15:38.819Z,18.60
2024-02-08T23:18:26.272Z,19.70
2024-02-08T23:21:13.001Z,19.60
2024-02-08T23:24:03.535Z,17.20
2024-02-08T23:26:50.687Z,17.70
2024-02-08T23:29:37.292Z,14.90
2024-02-08T23:32:26.344Z,16.40
2024-02-08T23:35:14.000Z,17.30
2024-02-08T23:38:01.268Z,17.60
2024-02-08T23:40:49.349Z,16.20
2024-02-08T23:43:39.721Z,20.20
2024-02-08T23:46:26.908Z,17.50
2024-02-08T23:49:13.831Z,19.60
2024-02-08T23:52:00.651Z,19.80
2024-02-08T23:54:49.199Z,20.30
2024-02-08T23:57:37.470Z,21.50
